createdAt,value
2023-04-26T00:00:38.646Z,102160
2023-04-26T00:05:38.741Z,102160
2023-04-26T00:10:38.653Z,102150
2023-04-26T00:15:38.654Z,102150
2023-04-26T00:20:38.657Z,102150
2023-04-26T00:25:38.663Z,102150
2023-04-26T00:30:38.669Z,102150
2023-04-26T00:35:38.704Z,102140
2023-04-26T00:40:38.687Z,102150
2023-04-26T00:45:38.724Z,102140
2023-04-26T00:50:38.672Z,102140
2023-04-26T00:55:38.719Z,102130
2023-04-26T01:00:38.680Z,102130
2023-04-26T01:05:38.718Z,102130
2023-04-26T01:10:38.685Z,102130
2023-04-26T01:15:38.687Z,102120
2023-04-26T01:20:38.695Z,102130
2023-04-26T01:25:38.703Z,102130
2023-04-26T01:30:38.708Z,102140
2023-04-26T01:35:38.739Z,102140
2023-04-26T01:40:38.704Z,102140
2023-04-26T01:45:38.699Z,102150
2023-04-26T01:50:38.704Z,102140
2023-04-26T01:55:38.707Z,102140
2023-04-26T02:00:38.721Z,102140
2023-04-26T02:05:38.778Z,102140
2023-04-26T02:10:38.719Z,102140
2023-04-26T02:15:38.786Z,102140
2023-04-26T02:20:38.745Z,102140
2023-04-26T02:25:38.726Z,102140
2023-04-26T02:30:38.729Z,102140
2023-04-26T02:35:38.776Z,102140
2023-04-26T02:40:38.738Z,102140
2023-04-26T02:45:38.740Z,102150
2023-04-26T02:50:38.739Z,102130
2023-04-26T02:55:38.744Z,102140
2023-04-26T03:00:38.782Z,102150
2023-04-26T03:05:38.788Z,102140
2023-04-26T03:10:38.749Z,102140
2023-04-26T03:15:38.750Z,102140
2023-04-26T03:20:38.757Z,102130
2023-04-26T03:25:38.757Z,102130
2023-04-26T03:30:38.758Z,102130
2023-04-26T03:35:38.811Z,102130
2023-04-26T03:40:38.782Z,102130
2023-04-26T03:50:38.780Z,102120
2023-04-26T03:55:38.765Z,102110
2023-04-26T04:00:38.814Z,102120
2023-04-26T04:05:38.920Z,102120
2023-04-26T04:10:38.792Z,102120
2023-04-26T04:20:38.798Z,102110
2023-04-26T04:25:38.794Z,102120
2023-04-26T04:30:38.794Z,102120
2023-04-26T04:35:38.849Z,102120
2023-04-26T04:40:38.800Z,102120
2023-04-26T04:45:38.799Z,102130
2023-04-26T04:50:38.800Z,102120
2023-04-26T04:55:38.806Z,102130
2023-04-26T05:00:38.822Z,102130
2023-04-26T05:05:38.847Z,102130
2023-04-26T05:10:38.818Z,102130
2023-04-26T05:15:38.813Z,102130
2023-04-26T05:20:38.829Z,102140
2023-04-26T05:25:38.845Z,102140
2023-04-26T05:30:38.837Z,102140
2023-04-26T05:35:38.875Z,102140
2023-04-26T05:40:38.834Z,102150
2023-04-26T05:45:38.852Z,102150
2023-04-26T05:50:40.092Z,102150
2023-04-26T05:55:38.853Z,102160
2023-04-26T06:00:38.848Z,102150
2023-04-26T06:05:39.029Z,102160
2023-04-26T06:10:38.867Z,102160
2023-04-26T06:15:38.851Z,102160
2023-04-26T06:20:38.859Z,102170
2023-04-26T06:25:38.854Z,102170
2023-04-26T06:30:38.887Z,102170
2023-04-26T06:35:39.044Z,102170
2023-04-26T06:40:39.157Z,102160
2023-04-26T06:45:40.498Z,102160
2023-04-26T06:50:38.870Z,102160
2023-04-26T06:55:38.899Z,102170
2023-04-26T07:00:38.897Z,102160
2023-04-26T07:05:38.928Z,102170
2023-04-26T07:10:38.887Z,102170
2023-04-26T07:15:38.894Z,102180
2023-04-26T07:20:38.884Z,102180
2023-04-26T07:25:38.905Z,102180
2023-04-26T07:30:38.901Z,102170
2023-04-26T07:35:38.966Z,102180
2023-04-26T07:40:38.895Z,102180
2023-04-26T07:45:38.963Z,102180
2023-04-26T07:50:38.915Z,102170
2023-04-26T07:55:38.932Z,102170
2023-04-26T08:00:38.921Z,102170
2023-04-26T08:05:39.320Z,102180
2023-04-26T08:10:38.923Z,102180
2023-04-26T08:25:38.937Z,102180
2023-04-26T08:26:07.898Z,102180
2023-04-26T08:28:27.440Z,102180
2023-04-26T08:33:27.441Z,102180
2023-04-26T08:38:27.485Z,102190
2023-04-26T08:43:27.470Z,102190
2023-04-26T08:48:27.453Z,102170
2023-04-26T08:53:27.460Z,102180
2023-04-26T08:58:27.458Z,102180
2023-04-26T09:03:27.645Z,102180
2023-04-26T09:08:27.518Z,102180
2023-04-26T09:13:27.475Z,102190
2023-04-26T09:18:27.475Z,102190
2023-04-26T09:23:27.492Z,102190
2023-04-26T09:28:27.470Z,102180
2023-04-26T09:33:27.494Z,102180
2023-04-26T09:38:27.545Z,102180
2023-04-26T09:43:27.479Z,102170
2023-04-26T09:48:27.491Z,102170
2023-04-26T09:53:27.611Z,102160
2023-04-26T09:58:27.498Z,102160
2023-04-26T10:03:27.664Z,102160
2023-04-26T10:08:27.541Z,102160
2023-04-26T10:13:27.500Z,102160
2023-04-26T10:18:27.511Z,102160
2023-04-26T10:23:27.509Z,102150
2023-04-26T10:28:27.516Z,102150
2023-04-26T10:33:27.517Z,102150
2023-04-26T10:38:27.586Z,102150
2023-04-26T10:43:27.530Z,102150
2023-04-26T10:48:27.548Z,102160
2023-04-26T10:53:27.536Z,102160
2023-04-26T10:58:27.541Z,102160
2023-04-26T11:03:27.673Z,102160
2023-04-26T11:08:27.612Z,102150
2023-04-26T11:13:27.537Z,102160
2023-04-26T11:18:27.549Z,102160
2023-04-26T11:23:27.573Z,102160
2023-04-26T11:28:27.557Z,102160
2023-04-26T11:33:27.560Z,102150
2023-04-26T11:38:27.703Z,102150
2023-04-26T11:43:27.631Z,102150
2023-04-26T11:48:27.627Z,102150
2023-04-26T11:53:27.568Z,102150
2023-04-26T11:58:27.582Z,102150
2023-04-26T12:03:27.905Z,102150
2023-04-26T12:08:27.675Z,102150
2023-04-26T12:13:27.579Z,102150
2023-04-26T12:18:27.607Z,102150
2023-04-26T12:23:27.592Z,102150
2023-04-26T12:28:27.584Z,102150
2023-04-26T12:33:27.610Z,102150
2023-04-26T12:43:27.633Z,102150
2023-04-26T12:48:27.598Z,102150
2023-04-26T12:53:27.598Z,102140
2023-04-26T12:58:27.615Z,102130
2023-04-26T13:03:27.825Z,102140
2023-04-26T13:08:27.612Z,102130
2023-04-26T13:13:36.188Z,102130
2023-04-26T13:18:27.616Z,102140
2023-04-26T13:23:27.625Z,102140
2023-04-26T13:28:27.632Z,102150
2023-04-26T13:33:27.643Z,102150
2023-04-26T13:38:27.626Z,102150
2023-04-26T13:43:27.687Z,102150
2023-04-26T13:48:27.635Z,102140
2023-04-26T13:53:27.641Z,102140
2023-04-26T13:58:27.643Z,102140
2023-04-26T14:03:27.851Z,102140
2023-04-26T14:08:27.640Z,102140
2023-04-26T14:13:27.681Z,102150
2023-04-26T14:18:27.663Z,102160
2023-04-26T14:23:27.659Z,102170
2023-04-26T14:28:27.663Z,102170
2023-04-26T14:33:27.676Z,102170
2023-04-26T14:38:27.665Z,102170
2023-04-26T14:43:27.708Z,102170
2023-04-26T14:48:27.677Z,102160
2023-04-26T14:53:27.683Z,102160
2023-04-26T14:58:27.674Z,102150
2023-04-26T15:03:27.867Z,102150
2023-04-26T15:08:27.689Z,102150
2023-04-26T15:13:27.730Z,102150
2023-04-26T15:18:27.709Z,102140
2023-04-26T15:23:27.723Z,102140
2023-04-26T15:28:27.702Z,102140
2023-04-26T15:33:27.706Z,102130
2023-04-26T15:38:27.699Z,102130
2023-04-26T15:43:27.750Z,102140
2023-04-26T15:48:27.710Z,102130
2023-04-26T15:53:27.722Z,102140
2023-04-26T15:58:27.709Z,102130
2023-04-26T16:03:27.834Z,102140
2023-04-26T16:08:40.071Z,102140
2023-04-26T16:13:27.775Z,102150
2023-04-26T16:18:27.721Z,102160
2023-04-26T16:23:27.731Z,102150
2023-04-26T16:28:27.733Z,102150
2023-04-26T16:33:27.979Z,102150
2023-04-26T16:38:27.742Z,102150
2023-04-26T16:43:27.783Z,102150
2023-04-26T16:48:27.757Z,102150
2023-04-26T16:53:27.739Z,102160
2023-04-26T16:58:27.754Z,102160
2023-04-26T17:03:27.861Z,102160
2023-04-26T17:08:27.751Z,102160
2023-04-26T17:13:27.791Z,102170
2023-04-26T17:18:27.766Z,102170
2023-04-26T17:23:27.762Z,102170
2023-04-26T17:28:27.764Z,102170
2023-04-26T17:33:27.765Z,102170
2023-04-26T17:38:27.771Z,102180
2023-04-26T17:43:27.814Z,102170
2023-04-26T17:48:27.782Z,102180
2023-04-26T17:53:27.778Z,102180
2023-04-26T17:58:27.777Z,102180
2023-04-26T18:03:27.979Z,102190
2023-04-26T18:08:27.777Z,102190
2023-04-26T18:13:27.834Z,102190
2023-04-26T18:18:28.111Z,102190
2023-04-26T18:23:27.798Z,102200
2023-04-26T18:28:27.799Z,102200
2023-04-26T18:33:27.797Z,102200
2023-04-26T18:38:27.803Z,102200
2023-04-26T18:43:27.855Z,102210
2023-04-26T18:48:27.812Z,102210
2023-04-26T18:53:27.820Z,102220
2023-04-26T18:58:27.801Z,102230
2023-04-26T19:03:28.050Z,102230
2023-04-26T19:08:27.819Z,102230
2023-04-26T19:13:27.890Z,102230
2023-04-26T19:18:27.830Z,102230
2023-04-26T19:23:27.833Z,102240
2023-04-26T19:28:27.835Z,102250
2023-04-26T19:33:27.834Z,102260
2023-04-26T19:38:27.839Z,102260
2023-04-26T19:43:27.904Z,102250
2023-04-26T19:48:27.841Z,102260
2023-04-26T19:53:27.872Z,102260
2023-04-26T19:58:27.855Z,102260
2023-04-26T20:03:28.066Z,102270
2023-04-26T20:08:28.739Z,102280
2023-04-26T20:13:27.901Z,102280
2023-04-26T20:18:27.862Z,102280
2023-04-26T20:23:27.865Z,102290
2023-04-26T20:28:27.867Z,102290
2023-04-26T20:33:27.870Z,102290
2023-04-26T20:38:27.876Z,102280
2023-04-26T20:43:27.918Z,102290
2023-04-26T20:48:27.874Z,102290
2023-04-26T20:53:27.902Z,102290
2023-04-26T20:58:27.906Z,102290
2023-04-26T21:03:28.064Z,102290
2023-04-26T21:08:27.901Z,102290
2023-04-26T21:13:27.922Z,102290
2023-04-26T21:18:27.892Z,102290
2023-04-26T21:23:27.895Z,102290
2023-04-26T21:28:27.912Z,102290
2023-04-26T21:33:27.898Z,102300
2023-04-26T21:38:27.902Z,102300
2023-04-26T21:43:27.977Z,102300
2023-04-26T21:48:27.927Z,102300
2023-04-26T21:53:27.923Z,102300
2023-04-26T21:58:27.912Z,102300
2023-04-26T22:03:28.090Z,102310
2023-04-26T22:08:29.812Z,102310
2023-04-26T22:13:27.972Z,102310
2023-04-26T22:18:27.983Z,102300
2023-04-26T22:23:27.932Z,102300
2023-04-26T22:28:27.942Z,102310
2023-04-26T22:33:27.946Z,102310
2023-04-26T22:38:27.946Z,102320
2023-04-26T22:43:27.992Z,102320
2023-04-26T22:48:27.966Z,102330
2023-04-26T22:53:27.941Z,102330
2023-04-26T22:58:27.947Z,102330
2023-04-26T23:03:28.136Z,102330
2023-04-26T23:08:27.963Z,102330
2023-04-26T23:13:27.999Z,102340
2023-04-26T23:18:27.976Z,102340
2023-04-26T23:23:27.965Z,102340
2023-04-26T23:28:27.963Z,102340
2023-04-26T23:33:27.978Z,102340
2023-04-26T23:38:27.991Z,102350
2023-04-26T23:43:28.004Z,102360
2023-04-26T23:48:27.978Z,102360
2023-04-26T23:53:27.980Z,102360
2023-04-26T23:58:27.981Z,102360
